createdAt,value
2019-03-13T00:01:06.557Z,5.00
2019-03-13T00:03:35.019Z,5.70
2019-03-13T00:06:03.788Z,5.57
2019-03-13T00:08:32.513Z,3.50
2019-03-13T00:11:01.166Z,3.30
2019-03-13T00:13:29.861Z,3.23
2019-03-13T00:15:58.575Z,3.80
2019-03-13T00:18:27.126Z,3.23
2019-03-13T00:20:56.103Z,3.57
2019-03-13T00:23:24.815Z,3.63
2019-03-13T00:25:53.179Z,3.40
2019-03-13T00:28:21.661Z,3.17
2019-03-13T00:30:50.374Z,3.00
2019-03-13T00:33:19.129Z,3.30
2019-03-13T00:35:47.917Z,3.40
2019-03-13T00:38:17.425Z,3.90
2019-03-13T00:40:45.911Z,4.60
2019-03-13T00:43:14.385Z,3.50
2019-03-13T00:45:43.297Z,3.73
2019-03-13T00:48:11.859Z,3.40
2019-03-13T00:50:40.552Z,3.90
2019-03-13T00:53:09.274Z,4.37
2019-03-13T00:55:37.912Z,4.30
2019-03-13T00:58:06.601Z,3.67
2019-03-13T01:00:53.558Z,3.03
2019-03-13T01:03:47.620Z,3.90
2019-03-13T01:06:20.818Z,3.33
2019-03-13T01:08:49.469Z,3.20
2019-03-13T01:11:27.151Z,3.30
2019-03-13T01:13:55.257Z,3.40
2019-03-13T01:16:23.758Z,3.90
2019-03-13T01:18:52.397Z,3.20
2019-03-13T01:21:21.080Z,3.40
2019-03-13T01:23:50.001Z,3.57
2019-03-13T01:26:18.357Z,3.73
2019-03-13T01:28:47.350Z,3.20
2019-03-13T01:31:29.674Z,3.80
2019-03-13T01:34:16.700Z,4.10
2019-03-13T01:36:45.452Z,3.77
2019-03-13T01:39:14.240Z,3.40
2019-03-13T01:41:42.702Z,2.97
2019-03-13T01:44:11.437Z,3.43
2019-03-13T01:46:39.787Z,3.30
2019-03-13T01:49:08.273Z,3.13
2019-03-13T01:51:37.091Z,3.30
2019-03-13T01:54:05.513Z,3.37
2019-03-13T01:56:34.222Z,3.63
2019-03-13T01:59:02.723Z,2.93
2019-03-13T02:01:39.283Z,3.20
2019-03-13T02:04:07.665Z,3.80
2019-03-13T02:06:36.334Z,3.47
2019-03-13T02:09:06.340Z,3.07
2019-03-13T02:11:40.718Z,2.87
2019-03-13T02:14:09.062Z,3.00
2019-03-13T02:16:37.841Z,3.13
2019-03-13T02:19:06.546Z,3.20
2019-03-13T02:21:35.204Z,2.97
2019-03-13T02:24:03.891Z,3.30
2019-03-13T02:26:32.600Z,2.90
2019-03-13T02:29:01.257Z,2.90
2019-03-13T02:31:29.945Z,2.80
2019-03-13T02:33:58.363Z,2.97
2019-03-13T02:36:28.138Z,2.93
2019-03-13T02:38:56.839Z,3.03
2019-03-13T02:41:25.537Z,3.23
2019-03-13T02:43:54.190Z,3.17
2019-03-13T02:46:22.658Z,3.07
2019-03-13T02:48:50.979Z,3.10
2019-03-13T02:51:19.631Z,2.57
2019-03-13T02:53:49.380Z,2.90
2019-03-13T02:56:18.276Z,2.80
2019-03-13T02:58:46.702Z,2.80
2019-03-13T03:01:29.254Z,2.80
2019-03-13T03:03:59.974Z,2.60
2019-03-13T03:06:28.793Z,2.67
2019-03-13T03:08:57.429Z,2.77
2019-03-13T03:11:26.126Z,3.17
2019-03-13T03:13:54.986Z,2.77
2019-03-13T03:16:23.395Z,2.40
2019-03-13T03:18:52.184Z,2.57
2019-03-13T03:21:20.681Z,2.77
2019-03-13T03:23:49.352Z,2.73
2019-03-13T03:26:18.037Z,2.47
2019-03-13T03:28:46.751Z,2.97
2019-03-13T03:31:15.419Z,2.73
2019-03-13T03:33:58.414Z,2.80
2019-03-13T03:36:27.119Z,2.53
2019-03-13T03:38:55.595Z,2.80
2019-03-13T03:41:25.541Z,3.33
2019-03-13T03:43:53.789Z,2.67
2019-03-13T03:46:22.482Z,2.60
2019-03-13T03:48:51.264Z,3.20
2019-03-13T03:51:20.049Z,2.70
2019-03-13T03:53:48.433Z,2.87
2019-03-13T03:56:17.690Z,3.10
2019-03-13T03:58:46.190Z,2.97
2019-03-13T04:01:16.026Z,3.13
2019-03-13T04:03:44.802Z,3.10
2019-03-13T04:06:13.599Z,2.80
2019-03-13T04:08:42.550Z,3.33
2019-03-13T04:11:18.353Z,3.47
2019-03-13T04:13:52.458Z,2.93
2019-03-13T04:16:21.258Z,3.17
2019-03-13T04:18:49.931Z,2.63
2019-03-13T04:21:18.306Z,3.17
2019-03-13T04:23:47.113Z,2.80
2019-03-13T04:26:15.774Z,3.03
2019-03-13T04:28:44.441Z,3.30
2019-03-13T04:31:13.219Z,3.20
2019-03-13T04:33:41.818Z,3.10
2019-03-13T04:36:10.311Z,2.90
2019-03-13T04:38:39.028Z,3.10
2019-03-13T04:41:07.471Z,3.13
2019-03-13T04:43:36.368Z,2.80
2019-03-13T04:46:04.732Z,2.90
2019-03-13T04:48:33.334Z,2.57
2019-03-13T04:51:02.020Z,2.73
2019-03-13T04:53:30.722Z,3.00
2019-03-13T04:55:59.389Z,3.40
2019-03-13T04:58:28.086Z,3.27
2019-03-13T05:00:57.042Z,3.10
2019-03-13T05:03:25.637Z,3.20
2019-03-13T05:05:59.277Z,2.73
2019-03-13T05:09:09.301Z,3.40
2019-03-13T05:11:38.014Z,3.37
2019-03-13T05:14:12.613Z,3.43
2019-03-13T05:16:41.102Z,3.10
2019-03-13T05:19:09.562Z,3.27
2019-03-13T05:21:38.245Z,3.23
2019-03-13T05:24:06.964Z,3.10
2019-03-13T05:26:35.418Z,2.97
2019-03-13T05:29:06.019Z,3.17
2019-03-13T05:31:34.629Z,2.90
2019-03-13T05:34:03.313Z,3.30
2019-03-13T05:36:32.007Z,2.93
2019-03-13T05:39:00.521Z,2.93
2019-03-13T05:41:29.204Z,3.37
2019-03-13T05:43:57.867Z,3.03
2019-03-13T05:46:27.862Z,2.90
2019-03-13T05:48:57.253Z,4.27
2019-03-13T05:51:25.974Z,3.00
2019-03-13T05:53:54.694Z,2.90
2019-03-13T05:56:23.660Z,3.37
2019-03-13T05:58:52.229Z,3.23
2019-03-13T06:01:21.013Z,2.60
2019-03-13T06:03:49.878Z,2.80
2019-03-13T06:06:18.328Z,2.60
2019-03-13T06:08:47.001Z,2.50
2019-03-13T06:11:15.452Z,3.17
2019-03-13T06:13:47.178Z,2.83
2019-03-13T06:16:14.723Z,2.97
2019-03-13T06:18:43.342Z,2.97
2019-03-13T06:21:12.021Z,2.47
2019-03-13T06:23:42.067Z,3.57
2019-03-13T06:26:10.634Z,2.63
2019-03-13T06:28:39.305Z,3.40
2019-03-13T06:31:08.034Z,2.67
2019-03-13T06:33:36.940Z,3.30
2019-03-13T06:36:05.377Z,3.00
2019-03-13T06:38:33.866Z,2.87
2019-03-13T06:41:05.115Z,2.90
2019-03-13T06:43:32.739Z,2.70
2019-03-13T06:46:01.387Z,3.03
2019-03-13T06:48:30.026Z,3.00
2019-03-13T06:50:58.664Z,2.53
2019-03-13T06:53:27.439Z,3.07
2019-03-13T06:55:55.837Z,3.07
2019-03-13T06:58:36.373Z,2.87
2019-03-13T07:01:21.906Z,3.03
2019-03-13T07:04:08.366Z,2.60
2019-03-13T07:07:05.867Z,2.80
2019-03-13T07:09:48.313Z,2.67
2019-03-13T07:12:35.101Z,2.87
2019-03-13T07:15:23.709Z,2.97
2019-03-13T07:18:15.481Z,3.50
2019-03-13T07:21:18.388Z,3.13
2019-03-13T07:23:59.344Z,3.27
2019-03-13T07:26:32.802Z,3.63
2019-03-13T07:29:38.647Z,3.20
2019-03-13T07:32:26.884Z,3.33
2019-03-13T07:35:14.974Z,2.93
2019-03-13T07:38:03.154Z,3.00
2019-03-13T07:40:49.770Z,3.23
2019-03-13T07:43:40.270Z,3.27
2019-03-13T07:46:16.312Z,3.33
2019-03-13T07:49:10.041Z,2.80
2019-03-13T07:51:46.137Z,3.30
2019-03-13T07:54:40.677Z,3.40
2019-03-13T07:57:23.541Z,2.93
2019-03-13T08:00:25.791Z,3.67
2019-03-13T08:03:02.900Z,3.00
2019-03-13T08:05:49.558Z,3.47
2019-03-13T08:08:33.961Z,3.33
2019-03-13T08:11:10.186Z,3.77
2019-03-13T08:13:55.602Z,2.87
2019-03-13T08:16:32.426Z,3.23
2019-03-13T08:19:17.133Z,3.93
2019-03-13T08:22:11.895Z,3.57
2019-03-13T08:25:07.985Z,3.30
2019-03-13T08:27:55.730Z,4.10
2019-03-13T08:30:52.690Z,3.57
2019-03-13T08:33:35.508Z,3.80
2019-03-13T08:36:29.579Z,3.63
2019-03-13T08:39:16.098Z,3.83
2019-03-13T08:42:10.049Z,3.83
2019-03-13T08:44:55.017Z,3.93
2019-03-13T08:47:51.677Z,4.70
2019-03-13T08:50:30.700Z,4.20
2019-03-13T08:53:17.310Z,4.40
2019-03-13T08:56:08.282Z,4.20
2019-03-13T08:58:49.961Z,4.47
2019-03-13T09:01:37.814Z,4.07
2019-03-13T09:04:43.877Z,4.93
2019-03-13T09:07:21.697Z,4.43
2019-03-13T09:10:18.684Z,4.20
2019-03-13T09:13:09.410Z,3.87
2019-03-13T09:16:12.449Z,3.97
2019-03-13T09:18:59.793Z,4.10
2019-03-13T09:21:51.744Z,4.30
2019-03-13T09:24:44.041Z,3.77
2019-03-13T09:27:27.535Z,3.87
2019-03-13T09:30:16.332Z,3.87
2019-03-13T09:32:58.087Z,4.20
2019-03-13T09:35:52.011Z,4.50
2019-03-13T09:38:42.976Z,4.23
2019-03-13T09:41:32.475Z,3.97
2019-03-13T09:44:20.361Z,4.17
2019-03-13T09:47:11.303Z,4.37
2019-03-13T09:50:02.203Z,4.20
2019-03-13T09:52:49.111Z,4.67
2019-03-13T09:55:40.013Z,4.50
2019-03-13T09:58:26.249Z,4.80
2019-03-13T10:01:03.405Z,5.13
2019-03-13T10:03:54.724Z,4.73
2019-03-13T10:06:38.339Z,5.90
2019-03-13T10:09:36.314Z,4.43
2019-03-13T10:12:23.218Z,4.67
2019-03-13T10:15:21.050Z,6.10
2019-03-13T10:18:04.823Z,4.37
2019-03-13T10:20:51.099Z,4.93
2019-03-13T10:23:41.533Z,4.67
2019-03-13T10:26:35.454Z,4.93
2019-03-13T10:29:13.096Z,4.10
2019-03-13T10:32:13.054Z,4.80
2019-03-13T10:35:01.441Z,5.27
2019-03-13T10:37:47.951Z,4.97
2019-03-13T10:40:36.054Z,5.50
2019-03-13T10:43:15.277Z,5.00
2019-03-13T10:46:05.321Z,5.33
2019-03-13T10:49:05.531Z,5.53
2019-03-13T10:51:43.557Z,5.10
2019-03-13T10:54:25.387Z,6.73
2019-03-13T10:57:12.207Z,5.10
2019-03-13T10:59:52.598Z,5.10
2019-03-13T11:02:39.943Z,5.70
2019-03-13T11:05:17.262Z,5.17
2019-03-13T11:08:00.211Z,5.70
2019-03-13T11:10:51.077Z,4.93
2019-03-13T11:13:26.813Z,5.50
2019-03-13T11:16:15.128Z,6.10
2019-03-13T11:18:59.194Z,5.63
2019-03-13T11:21:47.052Z,6.43
2019-03-13T11:24:25.442Z,5.47
2019-03-13T11:27:03.484Z,4.23
2019-03-13T11:30:10.506Z,4.80
2019-03-13T11:32:59.536Z,5.50
2019-03-13T11:35:41.289Z,4.67
2019-03-13T11:38:26.209Z,4.70
2019-03-13T11:41:20.646Z,4.83
2019-03-13T11:44:04.413Z,4.97
2019-03-13T11:46:51.205Z,5.67
2019-03-13T11:49:30.267Z,5.20
2019-03-13T11:52:18.677Z,4.70
2019-03-13T11:54:54.152Z,4.73
2019-03-13T11:57:44.378Z,4.83
2019-03-13T12:00:27.307Z,5.23
2019-03-13T12:03:05.242Z,5.47
2019-03-13T12:06:03.116Z,8.83
2019-03-13T12:09:06.997Z,4.63
2019-03-13T12:11:56.801Z,5.13
2019-03-13T12:14:51.055Z,4.53
2019-03-13T12:17:40.831Z,4.00
2019-03-13T12:20:16.616Z,5.03
2019-03-13T12:22:55.802Z,3.97
2019-03-13T12:25:31.243Z,6.17
2019-03-13T12:28:17.976Z,4.10
2019-03-13T12:31:10.293Z,4.57
2019-03-13T12:33:56.857Z,4.47
2019-03-13T12:36:47.613Z,4.47
2019-03-13T12:39:21.912Z,4.77
2019-03-13T12:42:09.664Z,4.90
2019-03-13T12:45:02.617Z,4.70
2019-03-13T12:48:15.827Z,5.50
2019-03-13T12:50:47.418Z,4.90
2019-03-13T12:53:23.216Z,7.57
2019-03-13T12:56:16.204Z,4.53
2019-03-13T12:59:02.071Z,5.57
2019-03-13T13:01:50.402Z,4.97
2019-03-13T13:04:38.683Z,5.23
2019-03-13T13:07:26.862Z,5.97
2019-03-13T13:10:13.672Z,4.70
2019-03-13T13:12:58.830Z,5.10
2019-03-13T13:15:50.167Z,4.03
2019-03-13T13:18:38.491Z,4.30
2019-03-13T13:21:08.102Z,4.40
2019-03-13T13:23:36.771Z,4.30
2019-03-13T13:26:05.310Z,3.53
2019-03-13T13:28:33.934Z,3.50
2019-03-13T13:31:03.349Z,3.90
2019-03-13T13:33:32.177Z,3.90
2019-03-13T13:36:00.517Z,4.27
2019-03-13T13:38:29.110Z,4.77
2019-03-13T13:40:57.516Z,3.90
2019-03-13T13:43:26.236Z,4.50
2019-03-13T13:45:58.021Z,4.70
2019-03-13T13:48:26.741Z,4.73
2019-03-13T13:50:55.390Z,4.27
2019-03-13T13:53:24.075Z,4.87
2019-03-13T13:55:52.373Z,4.80
2019-03-13T13:58:20.737Z,4.33
2019-03-13T14:00:49.518Z,4.00
2019-03-13T14:03:18.229Z,3.97
2019-03-13T14:05:46.575Z,4.13
2019-03-13T14:08:14.961Z,3.60
2019-03-13T14:10:43.396Z,3.83
2019-03-13T14:13:11.918Z,4.00
2019-03-13T14:15:40.398Z,4.53
2019-03-13T14:18:09.102Z,4.50
2019-03-13T14:20:37.661Z,4.83
2019-03-13T14:23:06.473Z,4.23
2019-03-13T14:25:35.183Z,4.47
2019-03-13T14:28:05.274Z,4.83
2019-03-13T14:30:33.941Z,4.40
2019-03-13T14:33:02.467Z,3.73
2019-03-13T14:35:31.119Z,4.07
2019-03-13T14:37:59.788Z,4.00
2019-03-13T14:40:28.513Z,4.20
2019-03-13T14:42:57.164Z,3.30
2019-03-13T14:45:25.838Z,3.40
2019-03-13T14:47:54.556Z,2.70
2019-03-13T14:50:23.221Z,3.27
2019-03-13T14:52:51.905Z,3.23
2019-03-13T14:55:21.225Z,3.60
2019-03-13T14:57:49.906Z,3.50
2019-03-13T15:00:18.266Z,3.40
2019-03-13T15:02:46.798Z,3.70
2019-03-13T15:05:15.665Z,3.37
2019-03-13T15:07:44.459Z,3.40
2019-03-13T15:10:13.275Z,3.03
2019-03-13T15:12:43.031Z,3.30
2019-03-13T15:15:12.117Z,4.20
2019-03-13T15:17:40.853Z,3.80
2019-03-13T15:20:11.684Z,3.43
2019-03-13T15:22:40.033Z,4.13
2019-03-13T15:25:09.285Z,3.50
2019-03-13T15:27:38.036Z,3.77
2019-03-13T15:30:13.508Z,3.50
2019-03-13T15:32:41.848Z,4.00
2019-03-13T15:35:10.636Z,3.47
2019-03-13T15:37:39.363Z,3.40
2019-03-13T15:40:09.752Z,3.80
2019-03-13T15:42:40.696Z,4.10
2019-03-13T15:45:11.242Z,4.80
2019-03-13T15:47:39.997Z,4.03
2019-03-13T15:50:10.062Z,4.23
2019-03-13T15:52:40.699Z,4.03
2019-03-13T15:55:11.272Z,4.17
2019-03-13T15:57:39.643Z,4.40
2019-03-13T16:00:12.067Z,4.67
2019-03-13T16:02:40.482Z,4.20
2019-03-13T16:05:09.185Z,4.60
2019-03-13T16:07:37.898Z,4.77
2019-03-13T16:10:07.781Z,4.33
2019-03-13T16:12:36.491Z,4.43
2019-03-13T16:15:07.030Z,4.30
2019-03-13T16:17:35.685Z,4.03
2019-03-13T16:20:04.796Z,3.83
2019-03-13T16:22:33.192Z,3.67
2019-03-13T16:25:02.000Z,3.63
2019-03-13T16:27:30.646Z,4.17
2019-03-13T16:29:59.362Z,4.00
2019-03-13T16:32:28.005Z,4.40
2019-03-13T16:34:56.703Z,5.50
2019-03-13T16:37:25.477Z,5.87
2019-03-13T16:39:53.865Z,4.93
2019-03-13T16:42:22.355Z,4.07
2019-03-13T16:44:51.069Z,4.73
2019-03-13T16:47:19.714Z,4.07
2019-03-13T16:49:48.119Z,4.30
2019-03-13T16:52:16.913Z,4.33
2019-03-13T16:54:45.263Z,5.00
2019-03-13T16:57:14.038Z,4.60
2019-03-13T16:59:42.965Z,5.07
2019-03-13T17:02:11.795Z,3.73
2019-03-13T17:04:40.485Z,3.67
2019-03-13T17:07:09.012Z,2.87
2019-03-13T17:09:37.663Z,3.20
2019-03-13T17:12:06.340Z,3.07
2019-03-13T17:14:34.759Z,2.93
2019-03-13T17:17:03.510Z,2.77
2019-03-13T17:19:32.205Z,3.20
2019-03-13T17:22:00.694Z,3.50
2019-03-13T17:24:29.162Z,3.50
2019-03-13T17:26:57.654Z,3.87
2019-03-13T17:29:26.379Z,4.27
2019-03-13T17:31:55.023Z,3.30
2019-03-13T17:34:24.114Z,3.93
2019-03-13T17:36:52.830Z,2.57
2019-03-13T17:39:21.491Z,3.37
2019-03-13T17:41:49.993Z,3.03
2019-03-13T17:44:18.398Z,2.00
2019-03-13T17:46:47.168Z,2.40
2019-03-13T17:49:15.827Z,2.90
2019-03-13T17:51:44.148Z,3.40
2019-03-13T17:54:12.795Z,2.90
2019-03-13T17:56:41.457Z,2.70
2019-03-13T17:59:10.662Z,2.80
2019-03-13T18:01:39.504Z,3.30
2019-03-13T18:04:07.938Z,3.57
2019-03-13T18:06:38.312Z,3.80
2019-03-13T18:09:06.937Z,4.00
2019-03-13T18:11:37.274Z,3.93
2019-03-13T18:14:06.113Z,3.83
2019-03-13T18:16:40.535Z,3.50
2019-03-13T18:19:09.678Z,3.20
2019-03-13T18:21:45.325Z,3.30
2019-03-13T18:24:14.876Z,3.23
2019-03-13T18:26:47.927Z,3.43
2019-03-13T18:29:17.130Z,3.90
2019-03-13T18:31:47.451Z,3.47
2019-03-13T18:34:17.916Z,3.43
2019-03-13T18:36:54.656Z,4.30
2019-03-13T18:39:33.299Z,3.73
2019-03-13T18:42:14.837Z,3.57
2019-03-13T18:44:58.086Z,3.37
2019-03-13T18:47:36.988Z,4.40
2019-03-13T18:50:17.614Z,5.33
2019-03-13T18:52:50.937Z,5.07
2019-03-13T18:55:23.312Z,4.00
2019-03-13T18:57:57.391Z,3.83
2019-03-13T19:00:35.958Z,4.63
2019-03-13T19:03:08.437Z,4.47
2019-03-13T19:06:07.668Z,4.97
2019-03-13T19:08:38.879Z,5.00
2019-03-13T19:11:09.217Z,4.53
2019-03-13T19:13:41.045Z,4.60
2019-03-13T19:16:22.142Z,5.13
2019-03-13T19:18:51.472Z,4.43
2019-03-13T19:21:20.132Z,5.13
2019-03-13T19:23:50.025Z,7.17
2019-03-13T19:26:18.744Z,5.70
2019-03-13T19:28:47.414Z,5.83
2019-03-13T19:31:16.158Z,5.17
2019-03-13T19:33:45.675Z,5.07
2019-03-13T19:36:14.530Z,5.03
2019-03-13T19:38:43.899Z,5.20
2019-03-13T19:41:12.719Z,5.57
2019-03-13T19:43:41.601Z,4.97
2019-03-13T19:46:09.983Z,5.37
2019-03-13T19:48:39.476Z,4.70
2019-03-13T19:51:09.084Z,4.93
2019-03-13T19:53:37.808Z,6.00
2019-03-13T19:56:06.818Z,7.30
2019-03-13T19:58:35.859Z,6.10
2019-03-13T20:01:05.107Z,5.90
2019-03-13T20:03:33.933Z,6.23
2019-03-13T20:06:02.619Z,5.63
2019-03-13T20:08:31.564Z,6.63
2019-03-13T20:11:00.428Z,6.37
2019-03-13T20:13:29.512Z,5.60
2019-03-13T20:15:58.030Z,6.67
2019-03-13T20:18:26.543Z,5.70
2019-03-13T20:20:55.041Z,6.07
2019-03-13T20:23:23.878Z,6.30
2019-03-13T20:25:53.346Z,6.33
2019-03-13T20:28:22.090Z,6.40
2019-03-13T20:30:50.935Z,5.90
2019-03-13T20:33:20.271Z,6.03
2019-03-13T20:35:49.299Z,5.30
2019-03-13T20:38:19.879Z,4.77
2019-03-13T20:40:53.016Z,5.90
2019-03-13T20:43:21.825Z,5.73
2019-03-13T20:45:50.596Z,5.13
2019-03-13T20:48:19.058Z,5.77
2019-03-13T20:50:47.792Z,5.43
2019-03-13T20:53:16.231Z,6.67
2019-03-13T20:55:45.947Z,5.80
2019-03-13T20:58:14.669Z,5.67
2019-03-13T21:00:43.102Z,6.57
2019-03-13T21:03:11.788Z,5.50
2019-03-13T21:05:40.097Z,5.13
2019-03-13T21:08:08.753Z,4.70
2019-03-13T21:10:37.234Z,6.40
2019-03-13T21:13:05.949Z,5.77
2019-03-13T21:15:34.597Z,5.23
2019-03-13T21:18:03.162Z,5.50
2019-03-13T21:20:31.708Z,6.20
2019-03-13T21:23:00.226Z,6.00
2019-03-13T21:25:28.926Z,5.53
2019-03-13T21:27:57.659Z,4.77
2019-03-13T21:30:26.613Z,5.37
2019-03-13T21:32:55.187Z,6.23
2019-03-13T21:35:24.006Z,4.50
2019-03-13T21:37:52.785Z,5.50
2019-03-13T21:40:21.649Z,6.00
2019-03-13T21:42:53.971Z,5.60
2019-03-13T21:45:22.780Z,5.40
2019-03-13T21:47:51.635Z,5.00
2019-03-13T21:50:20.390Z,5.33
2019-03-13T21:52:48.853Z,5.70
2019-03-13T21:55:17.490Z,5.13
2019-03-13T21:57:45.840Z,5.67
2019-03-13T22:00:17.463Z,5.73
2019-03-13T22:02:45.883Z,5.53
2019-03-13T22:05:24.946Z,5.20
2019-03-13T22:07:44.888Z,6.00
2019-03-13T22:10:13.844Z,5.87
2019-03-13T22:12:42.558Z,5.27
2019-03-13T22:15:12.598Z,5.33
2019-03-13T22:17:41.061Z,5.60
2019-03-13T22:20:11.587Z,5.50
2019-03-13T22:22:40.809Z,4.40
2019-03-13T22:25:10.926Z,4.70
2019-03-13T22:27:40.453Z,4.63
2019-03-13T22:30:12.786Z,4.50
2019-03-13T22:32:41.475Z,4.50
2019-03-13T22:35:10.230Z,5.23
2019-03-13T22:37:39.037Z,4.47
2019-03-13T22:40:08.085Z,4.40
2019-03-13T22:42:36.859Z,4.60
2019-03-13T22:45:07.468Z,5.20
2019-03-13T22:47:42.497Z,4.30
2019-03-13T22:50:07.798Z,4.83
2019-03-13T22:52:36.506Z,4.57
2019-03-13T22:55:05.394Z,4.43
2019-03-13T22:57:33.851Z,5.07
2019-03-13T23:00:04.825Z,4.60
2019-03-13T23:02:35.009Z,4.07
2019-03-13T23:05:03.598Z,4.60
2019-03-13T23:07:33.841Z,4.67
2019-03-13T23:10:04.886Z,4.80
2019-03-13T23:12:33.361Z,4.57
2019-03-13T23:15:11.115Z,4.73
2019-03-13T23:17:39.938Z,4.80
2019-03-13T23:20:08.569Z,5.40
2019-03-13T23:22:36.993Z,4.80
2019-03-13T23:25:07.058Z,5.80
2019-03-13T23:27:35.689Z,5.10
2019-03-13T23:30:04.889Z,4.60
2019-03-13T23:32:33.492Z,4.37
2019-03-13T23:35:04.225Z,4.97
2019-03-13T23:37:32.266Z,4.67
2019-03-13T23:40:00.690Z,4.80
2019-03-13T23:42:29.242Z,4.47
2019-03-13T23:44:57.729Z,4.90
2019-03-13T23:47:26.222Z,5.50
2019-03-13T23:49:54.894Z,4.90
2019-03-13T23:52:25.888Z,4.80
2019-03-13T23:54:53.928Z,4.17
2019-03-13T23:57:22.569Z,4.50
2019-03-13T23:59:51.270Z,4.53
